createdAt,value
2023-05-19T00:01:49.241Z,57.80
2023-05-19T00:04:21.248Z,57.80
2023-05-19T00:06:52.017Z,57.80
2023-05-19T00:09:20.133Z,57.80
2023-05-19T00:11:48.297Z,57.80
2023-05-19T00:14:18.242Z,57.80
2023-05-19T00:16:47.452Z,57.80
2023-05-19T00:19:16.822Z,57.80
2023-05-19T00:21:44.769Z,57.80
2023-05-19T00:24:13.138Z,57.80
2023-05-19T00:26:41.046Z,57.80
2023-05-19T00:29:08.919Z,57.80
2023-05-19T00:31:38.342Z,57.80
2023-05-19T00:34:06.593Z,57.80
2023-05-19T00:36:34.405Z,57.80
2023-05-19T00:39:02.115Z,57.80
2023-05-19T00:41:30.331Z,57.80
2023-05-19T00:43:58.600Z,58.30
2023-05-19T00:46:26.627Z,57.80
2023-05-19T00:48:55.753Z,57.80
2023-05-19T00:51:24.933Z,57.70
2023-05-19T00:53:53.618Z,57.70
2023-05-19T00:56:22.500Z,57.70
2023-05-19T00:58:52.166Z,57.70
2023-05-19T01:01:21.487Z,57.70
2023-05-19T01:03:49.992Z,57.60
2023-05-19T01:06:20.844Z,57.70
2023-05-19T01:08:48.752Z,57.70
2023-05-19T01:11:16.523Z,57.70
2023-05-19T01:13:45.053Z,57.70
2023-05-19T01:16:18.719Z,57.70
2023-05-19T01:18:56.339Z,57.70
2023-05-19T01:22:12.896Z,57.80
2023-05-19T01:25:04.703Z,57.80
2023-05-19T01:27:47.818Z,57.80
2023-05-19T01:30:31.195Z,57.80
2023-05-19T01:33:01.815Z,57.90
2023-05-19T01:35:30.212Z,57.80
2023-05-19T01:38:01.242Z,57.90
2023-05-19T01:40:30.443Z,57.80
2023-05-19T01:43:01.351Z,57.90
2023-05-19T01:45:31.593Z,57.90
2023-05-19T01:48:02.059Z,57.80
2023-05-19T01:50:30.925Z,57.80
2023-05-19T01:52:59.457Z,57.90
2023-05-19T01:55:28.017Z,57.90
2023-05-19T01:58:08.062Z,57.90
2023-05-19T02:00:48.182Z,58.00
2023-05-19T02:03:30.884Z,58.00
2023-05-19T02:06:11.907Z,58.10
2023-05-19T02:08:45.237Z,57.90
2023-05-19T02:11:21.599Z,57.90
2023-05-19T02:13:51.309Z,57.90
2023-05-19T02:16:23.038Z,57.90
2023-05-19T02:18:53.824Z,57.90
2023-05-19T02:21:21.750Z,57.90
2023-05-19T02:23:49.872Z,58.00
2023-05-19T02:26:17.910Z,57.90
2023-05-19T02:28:45.868Z,57.90
2023-05-19T02:31:13.606Z,57.90
2023-05-19T02:33:43.097Z,57.90
2023-05-19T02:36:10.893Z,57.90
2023-05-19T02:38:38.690Z,58.00
2023-05-19T02:41:06.603Z,58.00
2023-05-19T02:43:34.355Z,58.10
2023-05-19T02:46:02.156Z,58.10
2023-05-19T02:48:30.137Z,58.00
2023-05-19T02:50:59.185Z,58.00
2023-05-19T02:53:27.597Z,58.50
2023-05-19T02:55:55.372Z,57.90
2023-05-19T02:58:23.129Z,57.90
2023-05-19T03:00:51.656Z,57.90
2023-05-19T03:03:19.804Z,57.90
2023-05-19T03:05:47.720Z,57.90
2023-05-19T03:08:16.828Z,57.90
2023-05-19T03:10:44.690Z,57.90
2023-05-19T03:13:12.530Z,57.90
2023-05-19T03:15:40.324Z,58.00
2023-05-19T03:18:08.545Z,57.90
2023-05-19T03:20:36.638Z,57.90
2023-05-19T03:23:04.520Z,57.90
2023-05-19T03:25:33.686Z,57.90
2023-05-19T03:28:01.538Z,57.90
2023-05-19T03:30:29.294Z,57.90
2023-05-19T03:32:57.251Z,57.90
2023-05-19T03:35:25.143Z,57.90
2023-05-19T03:37:52.917Z,57.90
2023-05-19T03:40:21.171Z,57.90
2023-05-19T03:42:50.551Z,57.80
2023-05-19T03:45:18.464Z,58.50
2023-05-19T03:47:47.169Z,57.90
2023-05-19T03:50:14.917Z,57.90
2023-05-19T03:52:45.454Z,57.90
2023-05-19T03:55:14.638Z,58.00
2023-05-19T03:57:43.489Z,57.90
2023-05-19T04:00:14.074Z,57.90
2023-05-19T04:02:42.026Z,58.00
2023-05-19T04:05:10.244Z,58.00
2023-05-19T04:07:38.058Z,58.10
2023-05-19T04:10:06.637Z,58.20
2023-05-19T04:12:34.406Z,58.10
2023-05-19T04:15:02.139Z,58.20
2023-05-19T04:17:31.395Z,58.10
2023-05-19T04:19:59.287Z,58.10
2023-05-19T04:22:27.095Z,58.10
2023-05-19T04:24:55.023Z,58.00
2023-05-19T04:27:23.011Z,58.00
2023-05-19T04:29:50.824Z,58.00
2023-05-19T04:32:18.561Z,58.00
2023-05-19T04:34:47.718Z,58.10
2023-05-19T04:37:16.537Z,58.10
2023-05-19T04:39:45.387Z,58.10
2023-05-19T04:42:13.577Z,58.10
2023-05-19T04:44:42.416Z,58.10
2023-05-19T04:47:10.407Z,58.10
2023-05-19T04:49:39.704Z,58.10
2023-05-19T04:52:11.697Z,58.10
2023-05-19T04:54:41.717Z,58.00
2023-05-19T04:57:10.550Z,58.10
2023-05-19T04:59:38.255Z,57.20
2023-05-19T05:02:06.261Z,57.30
2023-05-19T05:04:34.276Z,57.20
2023-05-19T05:07:02.024Z,57.30
2023-05-19T05:09:31.346Z,57.30
2023-05-19T05:11:59.658Z,57.30
2023-05-19T05:14:27.976Z,57.40
2023-05-19T05:16:56.812Z,57.40
2023-05-19T05:19:25.157Z,57.40
2023-05-19T05:21:53.522Z,57.40
2023-05-19T05:24:21.828Z,57.50
2023-05-19T05:26:51.704Z,57.40
2023-05-19T05:29:20.388Z,57.50
2023-05-19T05:31:48.212Z,57.40
2023-05-19T05:34:16.328Z,57.50
2023-05-19T05:36:44.132Z,57.50
2023-05-19T05:39:11.891Z,57.40
2023-05-19T05:41:39.680Z,57.40
2023-05-19T05:44:08.786Z,57.50
2023-05-19T05:46:36.640Z,57.50
2023-05-19T05:49:04.914Z,57.60
2023-05-19T05:51:33.772Z,57.60
2023-05-19T05:54:02.953Z,57.70
2023-05-19T05:56:33.621Z,57.70
2023-05-19T05:59:01.409Z,57.80
2023-05-19T06:01:32.651Z,57.80
2023-05-19T06:04:02.079Z,57.80
2023-05-19T06:06:30.084Z,57.80
2023-05-19T06:08:57.901Z,57.80
2023-05-19T06:11:26.102Z,57.80
2023-05-19T06:13:53.959Z,58.40
2023-05-19T06:16:21.763Z,57.80
2023-05-19T06:18:50.930Z,57.90
2023-05-19T06:21:18.804Z,57.90
2023-05-19T06:23:46.529Z,57.90
2023-05-19T06:26:15.238Z,57.90
2023-05-19T06:28:43.036Z,57.90
2023-05-19T06:31:10.864Z,57.90
2023-05-19T06:33:38.882Z,57.90
2023-05-19T06:36:10.263Z,58.00
2023-05-19T06:38:38.053Z,58.10
2023-05-19T06:41:06.055Z,58.00
2023-05-19T06:43:34.043Z,58.00
2023-05-19T06:46:04.335Z,58.10
2023-05-19T06:48:32.185Z,58.10
2023-05-19T06:51:00.033Z,58.20
2023-05-19T06:53:29.207Z,58.20
2023-05-19T06:55:59.783Z,58.10
2023-05-19T06:58:28.109Z,58.20
2023-05-19T07:00:56.101Z,58.20
2023-05-19T07:03:24.172Z,58.10
2023-05-19T07:05:52.172Z,58.10
2023-05-19T07:08:19.877Z,58.10
2023-05-19T07:10:49.008Z,58.10
2023-05-19T07:13:16.780Z,58.10
2023-05-19T07:15:44.560Z,58.10
2023-05-19T07:18:12.342Z,58.00
2023-05-19T07:20:40.177Z,58.00
2023-05-19T07:23:07.990Z,58.00
2023-05-19T07:25:35.885Z,58.00
2023-05-19T07:28:05.407Z,58.00
2023-05-19T07:30:33.476Z,58.00
2023-05-19T07:33:01.734Z,58.00
2023-05-19T07:35:29.665Z,58.00
2023-05-19T07:37:57.650Z,58.10
2023-05-19T07:40:25.754Z,58.10
2023-05-19T07:42:53.515Z,58.10
2023-05-19T07:45:22.792Z,58.00
2023-05-19T07:47:50.666Z,58.00
2023-05-19T07:50:18.709Z,58.00
2023-05-19T07:52:46.521Z,58.10
2023-05-19T07:55:14.950Z,58.10
2023-05-19T07:57:42.707Z,58.10
2023-05-19T08:00:12.556Z,58.10
2023-05-19T08:02:42.422Z,58.10
2023-05-19T08:05:11.486Z,58.20
2023-05-19T08:07:39.353Z,58.20
2023-05-19T08:10:07.961Z,58.20
2023-05-19T08:12:35.843Z,58.10
2023-05-19T08:15:03.616Z,58.10
2023-05-19T08:17:31.494Z,58.20
2023-05-19T08:20:01.090Z,58.10
2023-05-19T08:22:29.165Z,58.20
2023-05-19T08:24:56.969Z,58.20
2023-05-19T08:27:24.790Z,58.30
2023-05-19T08:29:52.610Z,58.30
2023-05-19T08:32:20.403Z,58.40
2023-05-19T08:34:48.510Z,58.40
2023-05-19T08:37:18.163Z,58.30
2023-05-19T08:39:45.921Z,58.40
2023-05-19T08:42:13.724Z,58.40
2023-05-19T08:44:42.885Z,58.60
2023-05-19T08:47:14.043Z,58.50
2023-05-19T08:49:45.288Z,58.50
2023-05-19T08:52:26.262Z,58.50
2023-05-19T08:55:00.930Z,58.60
2023-05-19T08:57:29.384Z,58.60
2023-05-19T08:59:58.460Z,58.60
2023-05-19T09:02:26.883Z,58.60
2023-05-19T09:04:54.780Z,58.50
2023-05-19T09:07:26.125Z,58.50
2023-05-19T09:09:54.999Z,58.50
2023-05-19T09:12:23.452Z,58.20
2023-05-19T09:14:51.436Z,58.10
2023-05-19T09:17:19.208Z,58.00
2023-05-19T09:19:48.056Z,58.10
2023-05-19T09:22:19.047Z,58.30
2023-05-19T09:24:48.411Z,58.10
2023-05-19T09:27:22.056Z,58.20
2023-05-19T09:29:50.137Z,58.30
2023-05-19T09:32:26.129Z,58.20
2023-05-19T09:34:55.081Z,58.10
2023-05-19T09:37:24.374Z,58.00
2023-05-19T09:39:54.086Z,58.00
2023-05-19T09:42:26.885Z,58.10
2023-05-19T09:45:01.158Z,58.10
2023-05-19T09:47:28.994Z,58.00
2023-05-19T09:49:58.502Z,57.90
2023-05-19T09:52:27.352Z,57.80
2023-05-19T09:54:58.123Z,57.80
2023-05-19T09:57:29.298Z,57.70
2023-05-19T09:59:58.064Z,57.80
2023-05-19T10:02:27.438Z,57.80
2023-05-19T10:04:56.957Z,57.90
2023-05-19T10:07:25.481Z,57.80
2023-05-19T10:09:56.794Z,57.80
2023-05-19T10:12:27.828Z,57.80
2023-05-19T10:14:56.311Z,57.70
2023-05-19T10:17:26.356Z,57.70
2023-05-19T10:19:55.064Z,57.60
2023-05-19T10:22:22.800Z,57.60
2023-05-19T10:24:50.671Z,57.60
2023-05-19T10:27:20.128Z,57.50
2023-05-19T10:29:51.635Z,57.50
2023-05-19T10:32:24.106Z,57.40
2023-05-19T10:35:13.051Z,57.40
2023-05-19T10:37:47.236Z,57.40
2023-05-19T10:40:23.061Z,57.30
2023-05-19T10:43:07.452Z,58.00
2023-05-19T10:45:42.912Z,57.30
2023-05-19T10:48:12.592Z,57.30
2023-05-19T10:50:40.462Z,57.30
2023-05-19T10:53:15.515Z,57.40
2023-05-19T10:55:48.494Z,57.20
2023-05-19T10:58:39.084Z,57.20
2023-05-19T11:01:10.986Z,57.20
2023-05-19T11:03:49.525Z,57.10
2023-05-19T11:06:28.574Z,57.10
2023-05-19T11:09:01.945Z,57.10
2023-05-19T11:11:47.634Z,57.10
2023-05-19T11:14:18.850Z,57.10
2023-05-19T11:16:48.769Z,57.20
2023-05-19T11:19:28.131Z,57.20
2023-05-19T11:21:57.461Z,57.10
2023-05-19T11:24:36.074Z,57.10
2023-05-19T11:27:27.384Z,56.90
2023-05-19T11:29:59.186Z,56.90
2023-05-19T11:32:29.113Z,57.20
2023-05-19T11:34:57.330Z,57.20
2023-05-19T11:37:25.416Z,57.30
2023-05-19T11:39:53.766Z,57.20
2023-05-19T11:42:21.734Z,57.20
2023-05-19T11:44:50.165Z,57.20
2023-05-19T11:47:19.313Z,57.40
2023-05-19T11:49:49.780Z,57.70
2023-05-19T11:52:17.623Z,57.50
2023-05-19T11:54:49.710Z,57.50
2023-05-19T11:57:17.929Z,57.30
2023-05-19T11:59:48.171Z,57.40
2023-05-19T12:02:19.985Z,57.40
2023-05-19T12:04:48.200Z,57.30
2023-05-19T12:07:18.518Z,57.30
2023-05-19T12:09:47.217Z,57.30
2023-05-19T12:12:16.975Z,57.40
2023-05-19T12:14:45.569Z,57.30
2023-05-19T12:17:14.159Z,57.30
2023-05-19T12:19:44.948Z,57.20
2023-05-19T12:22:13.542Z,57.20
2023-05-19T12:24:42.108Z,57.20
2023-05-19T12:27:14.044Z,57.10
2023-05-19T12:29:42.262Z,57.00
2023-05-19T12:32:10.750Z,56.90
2023-05-19T12:34:39.025Z,56.80
2023-05-19T12:37:08.187Z,56.70
2023-05-19T12:39:36.837Z,56.80
2023-05-19T12:42:05.475Z,57.00
2023-05-19T12:44:38.278Z,57.10
2023-05-19T12:47:07.029Z,57.00
2023-05-19T12:49:34.952Z,57.00
2023-05-19T12:52:05.643Z,57.00
2023-05-19T12:54:36.424Z,57.00
2023-05-19T12:57:07.072Z,57.00
2023-05-19T12:59:38.722Z,56.90
2023-05-19T13:02:07.801Z,56.90
2023-05-19T13:04:36.126Z,57.00
2023-05-19T13:07:03.970Z,57.00
2023-05-19T13:09:34.994Z,57.00
2023-05-19T13:12:04.768Z,56.90
2023-05-19T13:14:32.673Z,56.70
2023-05-19T13:17:00.460Z,56.90
2023-05-19T13:19:28.280Z,56.80
2023-05-19T13:21:56.325Z,56.60
2023-05-19T13:24:24.123Z,56.60
2023-05-19T13:26:53.303Z,56.60
2023-05-19T13:29:23.035Z,56.40
2023-05-19T13:31:51.099Z,56.70
2023-05-19T13:34:19.749Z,56.80
2023-05-19T13:36:48.829Z,57.00
2023-05-19T13:39:16.647Z,57.00
2023-05-19T13:41:44.400Z,57.00
2023-05-19T13:44:12.132Z,57.00
2023-05-19T13:46:45.389Z,56.90
2023-05-19T13:49:13.757Z,56.80
2023-05-19T13:51:44.134Z,56.60
2023-05-19T13:54:12.035Z,56.50
2023-05-19T13:56:40.030Z,56.70
2023-05-19T13:59:07.998Z,56.60
2023-05-19T14:01:35.924Z,56.50
2023-05-19T14:04:05.550Z,56.30
2023-05-19T14:06:33.753Z,56.20
2023-05-19T14:09:02.291Z,56.10
2023-05-19T14:11:30.068Z,55.90
2023-05-19T14:13:57.833Z,56.00
2023-05-19T14:16:28.695Z,56.30
2023-05-19T14:18:56.521Z,56.40
2023-05-19T14:21:25.909Z,56.30
2023-05-19T14:23:53.819Z,56.30
2023-05-19T14:26:21.819Z,56.30
2023-05-19T14:28:49.681Z,56.10
2023-05-19T14:31:17.725Z,56.10
2023-05-19T14:33:45.699Z,55.90
2023-05-19T14:36:13.613Z,56.10
2023-05-19T14:38:42.770Z,56.20
2023-05-19T14:41:10.893Z,56.20
2023-05-19T14:43:38.848Z,56.20
2023-05-19T14:46:06.608Z,56.30
2023-05-19T14:48:34.366Z,56.40
2023-05-19T14:51:02.233Z,56.50
2023-05-19T14:53:30.103Z,56.60
2023-05-19T14:55:59.234Z,56.60
2023-05-19T14:58:29.234Z,56.50
2023-05-19T15:00:59.024Z,56.60
2023-05-19T15:03:27.009Z,56.70
2023-05-19T15:05:55.119Z,56.70
2023-05-19T15:08:23.521Z,56.80
2023-05-19T15:10:51.597Z,56.70
2023-05-19T15:13:21.477Z,56.80
2023-05-19T15:15:49.355Z,56.60
2023-05-19T15:18:18.931Z,56.30
2023-05-19T15:20:46.829Z,56.30
2023-05-19T15:23:14.675Z,56.30
2023-05-19T15:25:42.470Z,56.40
2023-05-19T15:28:10.254Z,56.40
2023-05-19T15:30:39.927Z,56.50
2023-05-19T15:33:07.845Z,56.60
2023-05-19T15:35:35.631Z,56.50
2023-05-19T15:38:06.245Z,56.60
2023-05-19T15:40:34.301Z,56.60
2023-05-19T15:43:02.393Z,56.50
2023-05-19T15:45:30.314Z,56.40
2023-05-19T15:47:59.667Z,56.50
2023-05-19T15:50:27.523Z,56.50
2023-05-19T15:52:55.329Z,56.50
2023-05-19T15:55:23.172Z,56.60
2023-05-19T15:57:51.056Z,56.50
2023-05-19T16:00:18.994Z,56.40
2023-05-19T16:02:46.901Z,56.30
2023-05-19T16:05:16.612Z,56.20
2023-05-19T16:07:44.411Z,56.10
2023-05-19T16:10:12.215Z,56.00
2023-05-19T16:12:40.222Z,56.00
2023-05-19T16:15:08.958Z,56.10
2023-05-19T16:17:36.710Z,56.20
2023-05-19T16:20:04.864Z,56.20
2023-05-19T16:22:33.985Z,56.20
2023-05-19T16:25:01.972Z,56.10
2023-05-19T16:27:29.704Z,56.20
2023-05-19T16:29:57.511Z,56.20
2023-05-19T16:32:25.372Z,56.20
2023-05-19T16:34:53.213Z,56.20
2023-05-19T16:37:21.056Z,56.10
2023-05-19T16:39:50.146Z,56.20
2023-05-19T16:42:17.937Z,56.10
2023-05-19T16:44:48.658Z,56.30
2023-05-19T16:47:18.817Z,56.30
2023-05-19T16:49:46.937Z,56.30
2023-05-19T16:52:14.784Z,56.30
2023-05-19T16:54:42.844Z,56.30
2023-05-19T16:57:14.946Z,56.30
2023-05-19T16:59:43.073Z,56.40
2023-05-19T17:02:10.945Z,56.30
2023-05-19T17:04:39.009Z,56.40
2023-05-19T17:07:06.885Z,56.40
2023-05-19T17:09:35.150Z,56.40
2023-05-19T17:12:03.643Z,56.40
2023-05-19T17:14:33.144Z,56.50
2023-05-19T17:17:01.062Z,56.40
2023-05-19T17:19:29.178Z,56.50
2023-05-19T17:21:57.576Z,56.40
2023-05-19T17:24:25.803Z,56.40
2023-05-19T17:26:53.659Z,56.50
2023-05-19T17:29:21.416Z,56.50
2023-05-19T17:31:50.796Z,56.40
2023-05-19T17:34:19.660Z,56.40
2023-05-19T17:36:49.570Z,56.40
2023-05-19T17:39:20.916Z,56.40
2023-05-19T17:41:48.752Z,56.50
2023-05-19T17:44:16.573Z,56.50
2023-05-19T17:46:45.568Z,56.50
2023-05-19T17:49:16.281Z,56.40
2023-05-19T17:51:44.886Z,56.50
2023-05-19T17:54:13.471Z,56.40
2023-05-19T17:56:43.375Z,56.40
2023-05-19T17:59:11.791Z,56.40
2023-05-19T18:01:40.791Z,56.40
2023-05-19T18:04:09.868Z,56.40
2023-05-19T18:06:41.743Z,56.50
2023-05-19T18:09:13.008Z,56.40
2023-05-19T18:11:41.899Z,56.50
2023-05-19T18:14:09.663Z,56.40
2023-05-19T18:16:37.526Z,56.50
2023-05-19T18:19:06.484Z,56.50
2023-05-19T18:21:34.613Z,56.40
2023-05-19T18:24:04.631Z,56.50
2023-05-19T18:26:33.530Z,56.40
2023-05-19T18:29:04.849Z,56.50
2023-05-19T18:31:32.966Z,56.50
2023-05-19T18:34:02.004Z,56.50
2023-05-19T18:36:32.236Z,56.50
2023-05-19T18:39:01.847Z,56.50
2023-05-19T18:41:31.899Z,56.40
2023-05-19T18:43:59.946Z,56.40
2023-05-19T18:46:28.304Z,56.40
2023-05-19T18:48:56.271Z,56.40
2023-05-19T18:51:25.524Z,56.40
2023-05-19T18:53:53.478Z,56.40
2023-05-19T18:56:25.192Z,56.40
2023-05-19T18:58:54.970Z,56.40
2023-05-19T19:01:24.894Z,56.50
2023-05-19T19:03:52.992Z,56.50
2023-05-19T19:06:24.942Z,56.50
2023-05-19T19:08:53.051Z,56.50
2023-05-19T19:11:21.369Z,56.40
2023-05-19T19:13:51.166Z,56.40
2023-05-19T19:16:20.577Z,56.50
2023-05-19T19:18:48.380Z,56.50
2023-05-19T19:21:16.219Z,56.50
2023-05-19T19:23:43.939Z,56.40
2023-05-19T19:26:11.771Z,56.50
2023-05-19T19:28:39.532Z,56.50
2023-05-19T19:31:07.280Z,56.40
2023-05-19T19:33:36.463Z,56.50
2023-05-19T19:36:04.646Z,56.40
2023-05-19T19:38:32.405Z,56.50
2023-05-19T19:41:00.172Z,56.60
2023-05-19T19:43:27.901Z,56.60
2023-05-19T19:46:00.769Z,56.60
2023-05-19T19:48:28.560Z,56.60
2023-05-19T19:50:58.418Z,56.60
2023-05-19T19:53:26.437Z,56.50
2023-05-19T19:55:58.309Z,56.70
2023-05-19T19:58:26.624Z,56.60
2023-05-19T20:01:00.311Z,56.60
2023-05-19T20:03:28.626Z,57.20
2023-05-19T20:05:57.949Z,56.60
2023-05-19T20:08:26.714Z,56.60
2023-05-19T20:10:55.040Z,56.60
2023-05-19T20:13:23.153Z,56.60
2023-05-19T20:15:51.245Z,56.60
2023-05-19T20:18:19.061Z,56.60
2023-05-19T20:20:46.896Z,56.70
2023-05-19T20:23:16.201Z,56.60
2023-05-19T20:26:02.349Z,56.70
2023-05-19T20:28:31.808Z,56.80
2023-05-19T20:30:59.570Z,56.80
2023-05-19T20:33:27.377Z,56.80
2023-05-19T20:35:55.170Z,56.80
2023-05-19T20:38:24.245Z,57.00
2023-05-19T20:40:52.519Z,56.90
2023-05-19T20:43:20.668Z,56.90
2023-05-19T20:45:48.520Z,57.00
2023-05-19T20:48:16.543Z,56.90
2023-05-19T20:50:44.575Z,56.90
2023-05-19T20:53:12.324Z,56.90
2023-05-19T20:55:42.247Z,56.90
2023-05-19T20:58:10.034Z,56.80
2023-05-19T21:00:38.186Z,56.80
2023-05-19T21:03:06.093Z,56.70
2023-05-19T21:05:34.053Z,56.70
2023-05-19T21:08:02.129Z,56.60
2023-05-19T21:10:29.877Z,56.60
2023-05-19T21:12:58.982Z,56.50
2023-05-19T21:15:27.199Z,56.50
2023-05-19T21:17:55.018Z,57.00
2023-05-19T21:20:23.005Z,57.00
2023-05-19T21:22:51.069Z,56.40
2023-05-19T21:25:24.791Z,56.30
2023-05-19T21:27:52.894Z,56.60
2023-05-19T21:30:23.412Z,56.70
2023-05-19T21:32:51.451Z,56.70
2023-05-19T21:35:19.302Z,56.60
2023-05-19T21:37:47.065Z,56.60
2023-05-19T21:40:14.988Z,56.60
2023-05-19T21:42:42.717Z,56.60
2023-05-19T21:45:11.369Z,56.50
2023-05-19T21:47:40.513Z,56.50
2023-05-19T21:50:09.513Z,56.60
2023-05-19T21:52:38.593Z,56.70
2023-05-19T21:55:07.705Z,56.60
2023-05-19T21:57:37.884Z,56.70
2023-05-19T22:00:07.945Z,56.80
2023-05-19T22:02:36.016Z,56.80
2023-05-19T22:05:06.072Z,56.80
2023-05-19T22:07:33.934Z,56.80
2023-05-19T22:10:01.840Z,56.80
2023-05-19T22:12:29.610Z,56.80
2023-05-19T22:14:57.640Z,56.80
2023-05-19T22:17:25.393Z,56.80
2023-05-19T22:19:53.487Z,56.80
2023-05-19T22:22:22.718Z,56.80
2023-05-19T22:24:50.533Z,56.80
2023-05-19T22:27:18.305Z,56.80
2023-05-19T22:29:46.108Z,56.80
2023-05-19T22:32:16.728Z,56.80
2023-05-19T22:34:44.985Z,56.90
2023-05-19T22:37:12.989Z,56.90
2023-05-19T22:39:42.067Z,56.90
2023-05-19T22:42:10.016Z,56.90
2023-05-19T22:44:37.766Z,56.90
2023-05-19T22:47:05.910Z,56.90
2023-05-19T22:49:33.690Z,56.90
2023-05-19T22:52:01.429Z,56.80
2023-05-19T22:54:29.234Z,56.80
2023-05-19T22:56:58.325Z,56.90
2023-05-19T22:59:26.081Z,56.80
2023-05-19T23:01:53.960Z,56.70
2023-05-19T23:04:22.022Z,56.80
2023-05-19T23:06:50.472Z,56.80
2023-05-19T23:09:18.325Z,56.80
2023-05-19T23:11:46.417Z,56.80
2023-05-19T23:14:15.643Z,56.80
2023-05-19T23:16:43.418Z,56.80
2023-05-19T23:19:11.286Z,56.80
2023-05-19T23:21:39.133Z,56.80
2023-05-19T23:24:07.501Z,56.80
2023-05-19T23:26:35.381Z,56.80
2023-05-19T23:29:03.245Z,56.70
2023-05-19T23:31:32.364Z,56.70
2023-05-19T23:34:02.811Z,56.80
2023-05-19T23:36:31.220Z,56.80
2023-05-19T23:38:58.958Z,56.70
2023-05-19T23:41:29.222Z,56.70
2023-05-19T23:43:56.977Z,56.70
2023-05-19T23:46:25.083Z,56.70
2023-05-19T23:48:54.269Z,56.70
2023-05-19T23:51:22.290Z,56.70
2023-05-19T23:53:50.352Z,56.70
2023-05-19T23:56:21.383Z,56.60
2023-05-19T23:58:49.493Z,56.70
